Bei Facebook empfehlenBei Twitter postenGoogle plusPinterest

Das Wetter im Erzgebirge am 28.04.2016

Wetter und Klima am 28.04.2016 Holzhau im Erzgebirge (630m ü.NN)
Letzte gemessene Temperatur und Uhrzeit der Messung23:45:00 Uhr-3.00 °C
Temperatur (Maximum / Höchstwert) und Uhrzeit der Messung15:45:00 Uhr9.30 °C
Temperatur (Minimum / Tiefstwert) und Uhrzeit der Messung23:45:00-3.00 °C
Errechneter Absolutwert der Temperaturschwankungen zwischen Tmin und Tmax des Tages12.30 K
Errechnete Tagesmitteltemperatur3.46771 °C
Gesamt - Niederschlag des Tages (in flüssiger Form)0.00 Liter / m²
Luftdruck (Maximum / Höchstwert) und Zeitpunkt der Messung23:45:00 Uhr1013.40 hPa
Luftdruck (Minimum / Tiefstwert) und Zeitpunkt der Messung00:15:00 Uhr1006.00 hPa
Errechneter Absolutwert der Luftdruckschwankungen des Tages7.40 hPa
Höchste gemessene Windgeschwindigkeit und Uhrzeit der Messung23:45:00 Uhr0.00 km/h
Errechnete Windhäufigkeit in Relation zu den Messwerten des Tages0.00000 %
Niedrigste Windkühle (Windchill) und Zeitpunkt der Messung23:45:00 Uhr-3.00 °C
Taupunkt (Maximum / Höchstwert) und Uhrzeit der Messung11:15:00 Uhr0.90 °C
Taupunkt (Minimum / Tiefstwert) und Uhrzeit der Messung23:45:00-5.90 °C
Anzahl der automatisch eingelesenen Messwerte 96

Detaillierte Wetter- und Klima- Messwerte für den 28.04.2016 in Holzhau im Erzgebirge (630m ü.NN)
ZeitTemperaturLuftdruckRel. LuftfeuchteWindWindrichtungWindchillTaupunktNiederschlag l/m²
23:45:00-3.00 °C1013.40 hPa82.00 %-5.90 °C 
23:30:00-2.90 °C1013.30 hPa82.00 %-5.90 °C 
23:15:00-2.60 °C1013.10 hPa81.00 %-5.70 °C 
23:00:00-2.20 °C1012.90 hPa81.00 %-5.30 °C 
22:45:00-2.20 °C1012.80 hPa80.00 %-5.50 °C 
22:30:00-2.20 °C1012.90 hPa80.00 %-5.50 °C 
22:15:00-2.10 °C1012.70 hPa79.00 %-5.60 °C 
22:00:00-2.10 °C1012.50 hPa78.00 %-5.80 °C 
21:45:00-1.80 °C1012.60 hPa77.00 %-5.70 °C 
21:30:00-1.60 °C1012.50 hPa76.00 %-5.70 °C 
21:15:00-1.20 °C1012.50 hPa74.00 %-5.70 °C 
21:00:00-0.70 °C1012.50 hPa74.00 %-5.20 °C 
20:45:00-0.20 °C1012.30 hPa72.00 %-5.10 °C 
20:30:000.60 °C1012.20 hPa71.00 %-4.00 °C 
20:15:001.30 °C1012.10 hPa70.00 %-3.60 °C 
20:00:002.30 °C1012.10 hPa69.00 %-2.80 °C 
19:45:003.10 °C1011.70 hPa68.00 %-2.20 °C 
19:30:003.90 °C1011.90 hPa65.00 %-2.10 °C 
19:15:004.40 °C1011.60 hPa63.00 %-2.00 °C 
19:00:005.00 °C1011.30 hPa62.00 %-1.70 °C 
18:45:005.30 °C1011.10 hPa61.00 %-1.60 °C 
18:30:005.60 °C1010.80 hPa60.00 %-1.50 °C 
18:15:006.10 °C1010.70 hPa59.00 %-1.30 °C 
18:00:006.40 °C1010.80 hPa58.00 %-1.20 °C 
17:45:006.80 °C1010.70 hPa57.00 %-1.10 °C 
17:30:007.10 °C1010.70 hPa56.00 %-1.10 °C 
17:15:007.40 °C1010.80 hPa56.00 %-0.80 °C 
17:00:007.60 °C1010.60 hPa58.00 %-0.10 °C 
16:45:007.50 °C1010.60 hPa58.00 %-0.20 °C 
16:30:007.30 °C1010.50 hPa59.00 %-0.20 °C 
16:15:006.60 °C1010.50 hPa60.00 %-0.60 °C 
16:00:007.30 °C1010.40 hPa57.00 %-0.60 °C 
15:45:009.30 °C1009.90 hPa50.00 %-0.60 °C 
15:30:008.60 °C1009.80 hPa52.00 %-0.70 °C 
15:15:008.80 °C1009.70 hPa51.00 %-0.80 °C 
15:00:008.40 °C1009.90 hPa52.00 %-0.90 °C 
14:45:008.60 °C1009.70 hPa50.00 %-1.20 °C 
14:30:008.40 °C1009.80 hPa47.00 %-2.20 °C 
14:15:009.10 °C1009.70 hPa47.00 %-1.60 °C 
14:00:008.40 °C1009.60 hPa52.00 %-0.90 °C 
13:45:007.50 °C1009.70 hPa51.00 %-2.00 °C 
13:30:007.80 °C1009.60 hPa52.00 %-1.40 °C 
13:15:008.40 °C1009.40 hPa50.00 %-1.40 °C 
13:00:008.10 °C1009.30 hPa51.00 %-1.40 °C 
12:45:007.90 °C1009.40 hPa53.00 %-1.10 °C 
12:30:008.10 °C1009.40 hPa53.00 %-0.90 °C 
12:15:007.90 °C1009.10 hPa55.00 %-0.60 °C 
12:00:007.50 °C1009.30 hPa56.00 %-0.70 °C 
11:45:008.30 °C1009.10 hPa55.00 %-0.20 °C 
11:30:008.30 °C1009.20 hPa57.00 %0.30 °C 
11:15:007.90 °C1009.30 hPa61.00 %0.90 °C 
11:00:007.30 °C1009.40 hPa59.00 %-0.20 °C 
10:45:006.80 °C1009.00 hPa60.00 %-0.40 °C 
10:30:006.40 °C1009.10 hPa62.00 %-0.30 °C 
10:15:006.60 °C1009.20 hPa60.00 %-0.60 °C 
10:00:006.60 °C1008.90 hPa66.00 %0.70 °C 
09:45:005.80 °C1008.90 hPa68.00 %0.40 °C 
09:30:005.10 °C1008.90 hPa70.00 %0.10 °C 
09:15:004.60 °C1008.90 hPa70.00 %-0.40 °C 
09:00:004.60 °C1008.90 hPa71.00 %-0.20 °C 
08:45:004.10 °C1008.80 hPa71.00 %-0.70 °C 
08:30:004.30 °C1008.80 hPa73.00 %-0.10 °C 
08:15:004.10 °C1008.50 hPa75.00 %0.10 °C 
08:00:003.30 °C1008.70 hPa75.00 %-0.70 °C 
07:45:003.70 °C1008.70 hPa74.00 %-0.50 °C 
07:30:004.40 °C1008.50 hPa77.00 %0.70 °C 
07:15:003.60 °C1008.50 hPa79.00 %0.30 °C 
07:00:002.90 °C1008.50 hPa81.00 %0.00 °C 
06:45:002.60 °C1008.20 hPa82.00 %-0.20 °C 
06:30:002.40 °C1008.10 hPa84.00 %0.00 °C 
06:15:001.30 °C1007.90 hPa85.00 %-0.90 °C 
06:00:00-0.10 °C1007.90 hPa85.00 %-2.60 °C 
05:45:00-0.60 °C1007.90 hPa85.00 %-3.10 °C 
05:30:00-1.00 °C1007.80 hPa84.00 %-3.60 °C 
05:15:00-1.10 °C1007.50 hPa84.00 %-3.70 °C 
05:00:00-1.10 °C1007.20 hPa84.00 %-3.70 °C 
04:45:00-0.70 °C1007.10 hPa84.00 %-3.30 °C 
04:30:00-0.70 °C1007.20 hPa83.00 %-3.50 °C 
04:15:00-0.50 °C1007.20 hPa84.00 %-3.10 °C 
04:00:00-0.60 °C1007.00 hPa84.00 %-3.20 °C 
03:45:00-0.50 °C1007.10 hPa83.00 %-3.30 °C 
03:30:00-0.20 °C1007.00 hPa83.00 %-3.00 °C 
03:15:000.10 °C1006.90 hPa82.00 %-2.60 °C 
03:00:000.20 °C1007.00 hPa82.00 %-2.50 °C 
02:45:000.40 °C1006.80 hPa82.00 %-2.30 °C 
02:30:000.90 °C1006.60 hPa81.00 %-2.00 °C 
02:15:001.30 °C1006.70 hPa81.00 %-1.60 °C 
02:00:001.40 °C1006.60 hPa81.00 %-1.50 °C 
01:45:001.50 °C1006.60 hPa81.00 %-1.40 °C 
01:30:001.60 °C1006.60 hPa81.00 %-1.30 °C 
01:15:001.60 °C1006.20 hPa81.00 %-1.30 °C 
01:00:001.50 °C1006.20 hPa81.00 %-1.40 °C 
00:45:001.40 °C1006.10 hPa81.00 %-1.50 °C 
00:30:001.40 °C1006.20 hPa81.00 %-1.50 °C 
00:15:001.30 °C1006.00 hPa81.00 %-1.60 °C 
00:00:000.80 °C1006.10 hPa81.00 %-2.10 °C 

Permanenter Link zu dieser Seite: Wetter im Erzgebirge am 28.04.2016
Performance-Info: Die Erstellung der Seite / Statistik(en) / Tabelle(n) erforderte 5 Datenbankserver-Abfrage(n) und dauerte 100 Millisekunden. (Dieser Messwert ist von der Gesamt-Auslastung des Servers abhängig.)
Erzgebirge - Wetter | Erzgebirge - Wetter (Mobilgeräte) | Komplette Klimadatenbank